createdAt,value
2024-01-12T00:01:58.878Z,99558.34
2024-01-12T00:04:30.913Z,99545.88
2024-01-12T00:07:03.759Z,99545.56
2024-01-12T00:09:35.991Z,99553.91
2024-01-12T00:12:08.100Z,99545.56
2024-01-12T00:14:40.498Z,99559.84
2024-01-12T00:17:12.543Z,99544.41
2024-01-12T00:19:46.820Z,99548.28
2024-01-12T00:22:18.743Z,99538.25
2024-01-12T00:24:51.470Z,99537.34
2024-01-12T00:27:23.632Z,99524.41
2024-01-12T00:29:56.381Z,99521.06
2024-01-12T00:32:28.745Z,99529.56
2024-01-12T00:35:00.723Z,99530.00
2024-01-12T00:37:33.133Z,99532.81
2024-01-12T00:40:05.983Z,99543.53
2024-01-12T00:42:38.422Z,99534.78
2024-01-12T00:45:10.657Z,99530.47
2024-01-12T00:47:43.642Z,99524.69
2024-01-12T00:50:18.040Z,99536.56
2024-01-12T00:52:50.532Z,99523.13
2024-01-12T00:55:22.975Z,99542.94
2024-01-12T00:57:55.468Z,99527.69
2024-01-12T01:00:28.096Z,99546.69
2024-01-12T01:03:03.576Z,99548.28
2024-01-12T01:05:36.229Z,99530.53
2024-01-12T01:08:08.342Z,99552.25
2024-01-12T01:10:42.979Z,99541.19
2024-01-12T01:13:18.113Z,99564.94
2024-01-12T01:15:50.702Z,99566.94
2024-01-12T01:18:22.876Z,99562.19
2024-01-12T01:20:55.520Z,99568.03
2024-01-12T01:23:28.173Z,99561.72
2024-01-12T01:26:00.625Z,99577.53
2024-01-12T01:28:33.101Z,99571.00
2024-01-12T01:31:11.151Z,99569.03
2024-01-12T01:45:23.763Z,99569.38
2024-01-12T01:47:55.859Z,99583.47
2024-01-12T01:50:28.352Z,99574.94
2024-01-12T01:53:01.336Z,99585.38
2024-01-12T01:55:33.982Z,99584.41
2024-01-12T01:58:06.341Z,99574.19
2024-01-12T02:00:40.181Z,99588.34
2024-01-12T02:03:12.581Z,99570.88
2024-01-12T02:05:47.787Z,99578.81
2024-01-12T02:08:20.294Z,99586.06
2024-01-12T02:10:56.938Z,99578.78
2024-01-12T02:13:29.458Z,99576.88
2024-01-12T02:16:01.843Z,99561.19
2024-01-12T02:18:34.617Z,99572.22
2024-01-12T02:21:06.786Z,99566.28
2024-01-12T02:23:39.299Z,99568.22
2024-01-12T02:26:11.508Z,99559.97
2024-01-12T02:28:44.203Z,99575.81
2024-01-12T02:31:17.877Z,99572.25
2024-01-12T02:33:50.576Z,99568.34
2024-01-12T02:36:29.973Z,99568.03
2024-01-12T02:39:02.207Z,99564.84
2024-01-12T02:41:34.261Z,99564.41
2024-01-12T02:44:07.058Z,99571.03
2024-01-12T02:46:40.322Z,99558.19
2024-01-12T02:49:12.317Z,99556.97
2024-01-12T02:51:44.819Z,99546.16
2024-01-12T02:54:16.902Z,99558.47
2024-01-12T02:56:49.502Z,99543.00
2024-01-12T02:59:21.907Z,99549.56
2024-01-12T03:01:53.886Z,99563.59
2024-01-12T03:04:26.343Z,99559.94
2024-01-12T03:06:58.251Z,99569.22
2024-01-12T03:09:30.768Z,99566.59
2024-01-12T03:12:02.981Z,99568.16
2024-01-12T03:14:35.552Z,99564.41
2024-01-12T03:17:07.804Z,99566.25
2024-01-12T03:19:42.297Z,99565.78
2024-01-12T03:22:37.989Z,99570.75
2024-01-12T03:25:09.923Z,99564.69
2024-01-12T03:27:42.523Z,99566.81
2024-01-12T03:30:15.342Z,99564.00
2024-01-12T03:32:47.955Z,99566.25
2024-01-12T03:35:19.979Z,99568.13
2024-01-12T03:37:52.809Z,99557.88
2024-01-12T03:40:24.761Z,99558.91
2024-01-12T03:42:57.097Z,99568.16
2024-01-12T03:45:29.051Z,99563.78
2024-01-12T03:48:01.910Z,99569.38
2024-01-12T03:50:33.964Z,99570.13
2024-01-12T03:53:07.260Z,99566.16
2024-01-12T03:55:39.658Z,99575.84
2024-01-12T03:58:12.299Z,99566.06
2024-01-12T04:00:44.291Z,99566.00
2024-01-12T04:03:17.105Z,99570.13
2024-01-12T04:05:49.176Z,99571.69
2024-01-12T04:08:21.882Z,99567.34
2024-01-12T04:10:53.900Z,99584.41
2024-01-12T04:13:26.611Z,99573.28
2024-01-12T04:15:58.598Z,99570.88
2024-01-12T04:18:31.459Z,99574.66
2024-01-12T04:21:05.011Z,99565.00
2024-01-12T04:23:39.419Z,99570.19
2024-01-12T04:26:11.771Z,99555.63
2024-01-12T04:28:44.467Z,99566.63
2024-01-12T04:31:16.508Z,99557.16
2024-01-12T04:33:49.376Z,99561.56
2024-01-12T04:36:25.167Z,99569.97
2024-01-12T04:38:58.855Z,99551.59
2024-01-12T04:41:30.902Z,99552.41
2024-01-12T04:44:03.614Z,99550.31
2024-01-12T04:46:35.568Z,99538.03
2024-01-12T04:49:08.131Z,99550.94
2024-01-12T04:51:40.284Z,99555.38
2024-01-12T04:54:12.977Z,99557.88
2024-01-12T04:56:44.968Z,99549.78
2024-01-12T04:59:17.611Z,99550.56
2024-01-12T05:01:49.600Z,99551.38
2024-01-12T05:04:22.290Z,99555.16
2024-01-12T05:06:54.315Z,99560.50
2024-01-12T05:09:27.702Z,99561.88
2024-01-12T05:12:06.507Z,99561.66
2024-01-12T05:14:39.490Z,99557.88
2024-01-12T05:17:11.510Z,99562.06
2024-01-12T05:19:44.196Z,99562.75
2024-01-12T05:22:16.389Z,99565.88
2024-01-12T05:24:48.999Z,99567.09
2024-01-12T05:27:20.966Z,99562.50
2024-01-12T05:29:53.606Z,99560.97
2024-01-12T05:32:26.091Z,99571.72
2024-01-12T05:34:59.102Z,99569.25
2024-01-12T05:37:31.291Z,99567.94
2024-01-12T05:40:04.177Z,99567.63
2024-01-12T05:42:36.120Z,99554.41
2024-01-12T05:45:09.253Z,99557.53
2024-01-12T05:47:41.334Z,99567.34
2024-01-12T05:50:14.004Z,99570.72
2024-01-12T05:52:48.111Z,99571.41
2024-01-12T05:55:20.736Z,99574.75
2024-01-12T05:57:53.066Z,99582.03
2024-01-12T06:00:25.661Z,99573.22
2024-01-12T06:02:57.586Z,99564.91
2024-01-12T06:05:30.301Z,99560.13
2024-01-12T06:08:02.386Z,99575.81
2024-01-12T06:10:34.675Z,99576.31
2024-01-12T06:13:06.844Z,99573.03
2024-01-12T06:15:39.505Z,99582.72
2024-01-12T06:18:11.508Z,99582.97
2024-01-12T06:20:44.720Z,99594.56
2024-01-12T06:23:16.824Z,99603.38
2024-01-12T06:25:49.863Z,99608.63
2024-01-12T06:28:21.767Z,99609.84
2024-01-12T06:30:57.054Z,99602.97
2024-01-12T06:33:32.606Z,99607.63
2024-01-12T06:36:05.850Z,99602.91
2024-01-12T06:38:37.802Z,99611.06
2024-01-12T06:41:10.467Z,99615.13
2024-01-12T06:43:42.452Z,99608.38
2024-01-12T06:46:15.270Z,99608.97
2024-01-12T06:48:47.658Z,99617.75
2024-01-12T06:51:24.425Z,99614.94
2024-01-12T06:53:56.475Z,99613.75
2024-01-12T06:56:29.382Z,99608.84
2024-01-12T06:59:01.473Z,99608.19
2024-01-12T07:01:34.445Z,99604.75
2024-01-12T07:04:06.488Z,99596.22
2024-01-12T07:06:39.332Z,99594.28
2024-01-12T07:09:14.329Z,99603.66
2024-01-12T07:11:47.443Z,99606.78
2024-01-12T07:14:19.967Z,99610.41
2024-01-12T07:16:52.782Z,99603.00
2024-01-12T07:19:24.876Z,99602.47
2024-01-12T07:21:57.910Z,99607.66
2024-01-12T07:24:29.948Z,99593.59
2024-01-12T07:27:02.740Z,99597.53
2024-01-12T07:29:35.335Z,99621.16
2024-01-12T07:32:08.129Z,99608.03
2024-01-12T07:34:40.322Z,99626.28
2024-01-12T07:37:13.146Z,99619.78
2024-01-12T07:39:45.457Z,99624.44
2024-01-12T07:42:18.091Z,99616.66
2024-01-12T07:44:51.144Z,99611.53
2024-01-12T07:47:24.499Z,99612.75
2024-01-12T07:49:56.799Z,99609.59
2024-01-12T07:52:29.806Z,99607.44
2024-01-12T07:55:02.056Z,99618.69
2024-01-12T07:57:34.687Z,99614.66
2024-01-12T08:00:08.073Z,99614.25
2024-01-12T08:02:46.801Z,99619.91
2024-01-12T08:05:20.715Z,99608.50
2024-01-12T08:07:53.609Z,99597.84
2024-01-12T08:10:25.977Z,99611.69
2024-01-12T08:12:58.642Z,99602.25
2024-01-12T08:15:30.878Z,99603.91
2024-01-12T08:18:04.346Z,99610.53
2024-01-12T08:20:36.991Z,99608.63
2024-01-12T08:23:11.143Z,99608.22
2024-01-12T08:25:45.112Z,99616.09
2024-01-12T08:28:19.541Z,99625.03
2024-01-12T08:30:57.157Z,99622.09
2024-01-12T08:33:33.361Z,99613.25
2024-01-12T08:39:01.320Z,99630.38
2024-01-12T08:41:34.980Z,99612.41
2024-01-12T08:44:08.899Z,99608.91
2024-01-12T08:46:45.013Z,99621.56
2024-01-12T08:49:18.157Z,99629.13
2024-01-12T08:51:50.375Z,99628.13
2024-01-12T08:54:23.145Z,99627.50
2024-01-12T08:56:55.208Z,99633.13
2024-01-12T08:59:29.329Z,99654.53
2024-01-12T09:02:01.449Z,99643.53
2024-01-12T09:04:35.873Z,99640.50
2024-01-12T09:07:08.056Z,99646.38
2024-01-12T09:09:41.252Z,99644.63
2024-01-12T09:12:13.837Z,99652.19
2024-01-12T09:14:47.593Z,99660.72
2024-01-12T09:17:20.562Z,99664.22
2024-01-12T09:19:53.787Z,99661.53
2024-01-12T09:22:26.242Z,99664.56
2024-01-12T09:25:06.234Z,99663.19
2024-01-12T09:27:42.289Z,99670.09
2024-01-12T09:30:18.272Z,99679.50
2024-01-12T09:32:50.440Z,99657.88
2024-01-12T09:35:23.370Z,99672.22
2024-01-12T09:37:55.412Z,99660.44
2024-01-12T09:40:27.823Z,99667.69
2024-01-12T09:43:02.010Z,99667.31
2024-01-12T09:45:38.022Z,99675.72
2024-01-12T09:48:10.233Z,99660.16
2024-01-12T09:50:45.471Z,99665.16
2024-01-12T09:53:17.714Z,99681.44
2024-01-12T09:56:00.151Z,99699.31
2024-01-12T09:58:43.625Z,99689.09
2024-01-12T10:01:19.508Z,99683.94
2024-01-12T10:08:15.606Z,99678.06
2024-01-12T10:10:52.616Z,99686.22
2024-01-12T10:13:24.986Z,99691.94
2024-01-12T10:15:58.450Z,99681.59
2024-01-12T10:18:33.051Z,99697.00
2024-01-12T10:21:07.387Z,99695.81
2024-01-12T10:27:15.772Z,99682.94
2024-01-12T10:30:09.244Z,99680.78
2024-01-12T10:32:42.135Z,99680.91
2024-01-12T10:35:14.576Z,99677.56
2024-01-12T10:37:48.746Z,99693.81
2024-01-12T10:40:20.948Z,99689.25
2024-01-12T10:46:00.434Z,99691.03
2024-01-12T10:48:59.245Z,99679.97
2024-01-12T10:51:40.973Z,99678.66
2024-01-12T10:54:24.897Z,99678.97
2024-01-12T10:56:57.873Z,99673.09
2024-01-12T10:59:30.566Z,99671.75
2024-01-12T11:02:05.016Z,99674.03
2024-01-12T11:04:38.172Z,99669.94
2024-01-12T11:07:12.168Z,99673.88
2024-01-12T11:09:44.445Z,99666.88
2024-01-12T11:12:34.614Z,99673.50
2024-01-12T11:15:08.994Z,99677.91
2024-01-12T11:17:42.239Z,99663.78
2024-01-12T11:20:20.127Z,99655.06
2024-01-12T11:22:56.474Z,99642.69
2024-01-12T11:25:31.254Z,99645.53
2024-01-12T11:28:04.207Z,99649.66
2024-01-12T11:30:44.479Z,99642.25
2024-01-12T11:33:19.697Z,99635.56
2024-01-12T11:35:53.228Z,99632.56
2024-01-12T11:38:25.560Z,99627.50
2024-01-12T11:40:58.040Z,99646.28
2024-01-12T11:43:29.975Z,99643.50
2024-01-12T11:46:03.525Z,99635.69
2024-01-12T11:48:35.958Z,99626.94
2024-01-12T11:51:08.035Z,99633.66
2024-01-12T11:53:40.728Z,99617.88
2024-01-12T11:56:12.750Z,99621.53
2024-01-12T11:58:45.338Z,99616.50
2024-01-12T12:01:17.348Z,99633.22
2024-01-12T12:03:50.763Z,99628.06
2024-01-12T12:06:23.431Z,99616.81
2024-01-12T12:08:57.366Z,99623.31
2024-01-12T12:11:30.642Z,99614.78
2024-01-12T12:16:56.117Z,99629.47
2024-01-12T12:19:28.587Z,99612.59
2024-01-12T12:22:01.794Z,99618.13
2024-01-12T12:24:35.632Z,99622.41
2024-01-12T12:27:08.591Z,99609.53
2024-01-12T12:29:45.984Z,99617.78
2024-01-12T12:32:18.274Z,99600.97
2024-01-12T12:34:50.968Z,99611.66
2024-01-12T12:37:23.155Z,99597.22
2024-01-12T12:39:56.982Z,99611.88
2024-01-12T12:42:29.021Z,99599.41
2024-01-12T12:45:01.981Z,99590.28
2024-01-12T12:47:35.577Z,99590.88
2024-01-12T12:50:14.198Z,99597.31
2024-01-12T12:52:48.112Z,99602.53
2024-01-12T12:58:09.416Z,99599.94
2024-01-12T13:00:42.206Z,99586.63
2024-01-12T13:03:25.978Z,99594.94
2024-01-12T13:05:59.113Z,99587.78
2024-01-12T13:08:31.667Z,99594.13
2024-01-12T13:11:04.740Z,99591.44
2024-01-12T13:13:36.711Z,99588.25
2024-01-12T13:16:10.981Z,99583.56
2024-01-12T13:18:44.095Z,99572.84
2024-01-12T13:21:16.904Z,99576.78
2024-01-12T13:27:05.047Z,99570.78
2024-01-12T13:29:42.816Z,99569.88
2024-01-12T13:32:15.777Z,99577.69
2024-01-12T13:34:49.137Z,99573.06
2024-01-12T13:37:22.131Z,99567.75
2024-01-12T13:39:54.165Z,99571.00
2024-01-12T13:42:27.302Z,99578.59
2024-01-12T13:45:00.471Z,99564.22
2024-01-12T13:47:33.525Z,99579.81
2024-01-12T13:50:08.557Z,99560.00
2024-01-12T13:52:41.352Z,99583.72
2024-01-12T13:55:13.803Z,99577.31
2024-01-12T13:57:46.355Z,99568.69
2024-01-12T14:00:19.130Z,99565.91
2024-01-12T14:02:51.802Z,99554.09
2024-01-12T14:05:23.864Z,99562.16
2024-01-12T14:07:56.854Z,99555.88
2024-01-12T14:10:29.299Z,99558.84
2024-01-12T14:13:03.166Z,99559.03
2024-01-12T14:15:35.327Z,99555.91
2024-01-12T14:18:08.834Z,99546.22
2024-01-12T14:20:43.964Z,99538.19
2024-01-12T14:23:19.199Z,99547.50
2024-01-12T14:25:51.249Z,99544.31
2024-01-12T14:28:32.045Z,99544.78
2024-01-12T14:31:05.687Z,99535.72
2024-01-12T14:33:40.519Z,99550.38
2024-01-12T14:36:12.718Z,99537.22
2024-01-12T14:38:45.460Z,99545.09
2024-01-12T14:41:18.318Z,99557.88
2024-01-12T14:43:59.854Z,99554.69
2024-01-12T14:46:33.268Z,99541.22
2024-01-12T14:49:06.397Z,99555.16
2024-01-12T14:51:39.089Z,99552.31
2024-01-12T14:54:12.158Z,99559.47
2024-01-12T14:56:44.422Z,99566.41
2024-01-12T14:59:17.106Z,99549.47
2024-01-12T15:01:49.551Z,99547.00
2024-01-12T15:04:22.567Z,99561.56
2024-01-12T15:06:54.854Z,99553.66
2024-01-12T15:09:27.561Z,99551.28
2024-01-12T15:12:00.039Z,99561.72
2024-01-12T15:14:32.217Z,99556.88
2024-01-12T15:17:05.340Z,99554.00
2024-01-12T15:19:37.997Z,99546.63
2024-01-12T15:22:11.495Z,99538.06
2024-01-12T15:24:43.976Z,99552.84
2024-01-12T15:27:17.311Z,99549.78
2024-01-12T15:29:49.439Z,99540.81
2024-01-12T15:32:22.053Z,99543.00
2024-01-12T15:34:54.909Z,99548.94
2024-01-12T15:37:27.763Z,99547.88
2024-01-12T15:40:00.413Z,99546.69
2024-01-12T15:42:38.940Z,99547.31
2024-01-12T15:45:30.617Z,99555.56
2024-01-12T15:48:03.561Z,99554.38
2024-01-12T15:50:36.715Z,99547.03
2024-01-12T15:53:09.887Z,99557.34
2024-01-12T15:55:42.728Z,99559.06
2024-01-12T15:58:14.995Z,99559.50
2024-01-12T16:00:47.557Z,99552.88
2024-01-12T16:03:23.136Z,99541.97
2024-01-12T16:05:55.357Z,99534.97
2024-01-12T16:08:27.974Z,99548.06
2024-01-12T16:11:00.035Z,99542.34
2024-01-12T16:13:32.984Z,99540.31
2024-01-12T16:16:06.864Z,99547.56
2024-01-12T16:18:40.101Z,99555.03
2024-01-12T16:21:31.520Z,99545.31
2024-01-12T16:24:04.769Z,99573.13
2024-01-12T16:26:41.312Z,99552.81
2024-01-12T16:29:14.437Z,99563.59
2024-01-12T16:31:46.940Z,99573.66
2024-01-12T16:34:23.877Z,99582.94
2024-01-12T16:36:56.353Z,99561.66
2024-01-12T16:39:29.890Z,99586.38
2024-01-12T16:42:02.417Z,99570.59
2024-01-12T16:44:36.167Z,99564.78
2024-01-12T16:47:10.218Z,99569.38
2024-01-12T16:49:42.681Z,99572.97
2024-01-12T16:52:15.342Z,99566.44
2024-01-12T16:54:47.362Z,99573.59
2024-01-12T16:57:29.195Z,99568.47
2024-01-12T17:00:02.051Z,99563.09
2024-01-12T17:02:34.301Z,99558.91
2024-01-12T17:05:10.568Z,99566.25
2024-01-12T17:07:43.409Z,99573.19
2024-01-12T17:10:15.663Z,99554.75
2024-01-12T17:12:48.188Z,99564.47
2024-01-12T17:15:20.996Z,99574.97
2024-01-12T17:17:53.776Z,99551.78
2024-01-12T17:20:26.167Z,99539.28
2024-01-12T17:22:58.299Z,99537.50
2024-01-12T17:25:30.823Z,99534.94
2024-01-12T17:28:02.931Z,99538.31
2024-01-12T17:30:43.624Z,99555.56
2024-01-12T17:33:17.101Z,99544.63
2024-01-12T17:35:49.379Z,99549.56
2024-01-12T17:38:22.054Z,99534.31
2024-01-12T17:40:54.271Z,99535.91
2024-01-12T17:43:26.896Z,99531.53
2024-01-12T17:45:59.047Z,99539.47
2024-01-12T17:48:32.745Z,99542.44
2024-01-12T17:51:06.362Z,99552.31
2024-01-12T17:53:38.983Z,99556.13
2024-01-12T17:56:13.161Z,99546.97
2024-01-12T17:58:45.703Z,99534.31
2024-01-12T18:01:18.232Z,99554.13
2024-01-12T18:03:51.081Z,99537.91
2024-01-12T18:06:23.348Z,99544.25
2024-01-12T18:08:59.756Z,99541.44
2024-01-12T18:11:33.364Z,99543.03
2024-01-12T18:14:06.082Z,99538.31
2024-01-12T18:16:41.578Z,99542.66
2024-01-12T18:19:16.522Z,99540.09
2024-01-12T18:21:48.761Z,99536.53
2024-01-12T18:24:21.432Z,99546.88
2024-01-12T18:26:53.612Z,99558.34
2024-01-12T18:29:26.775Z,99566.47
2024-01-12T18:32:00.726Z,99568.25
2024-01-12T18:34:33.582Z,99556.75
2024-01-12T18:37:05.794Z,99568.47
2024-01-12T18:39:38.523Z,99556.78
2024-01-12T18:42:10.775Z,99553.38
2024-01-12T18:44:44.208Z,99564.69
2024-01-12T18:47:16.468Z,99552.63
2024-01-12T18:49:49.162Z,99550.41
2024-01-12T18:52:21.253Z,99555.78
2024-01-12T18:54:54.039Z,99563.53
2024-01-12T18:57:28.673Z,99556.94
2024-01-12T19:00:01.405Z,99571.63
2024-01-12T19:02:33.427Z,99569.63
2024-01-12T19:05:06.351Z,99574.19
2024-01-12T19:07:38.702Z,99571.59
2024-01-12T19:10:10.742Z,99570.41
2024-01-12T19:12:43.261Z,99571.00
2024-01-12T19:15:17.058Z,99585.63
2024-01-12T19:17:50.004Z,99576.53
2024-01-12T19:20:22.242Z,99581.88
2024-01-12T19:22:54.793Z,99575.91
2024-01-12T19:25:26.908Z,99591.09
2024-01-12T19:28:02.091Z,99576.56
2024-01-12T19:30:34.408Z,99583.34
2024-01-12T19:33:06.836Z,99588.47
2024-01-12T19:35:39.300Z,99578.34
2024-01-12T19:38:11.344Z,99592.94
2024-01-12T19:40:44.354Z,99600.66
2024-01-12T19:43:16.282Z,99604.78
2024-01-12T19:45:48.920Z,99595.06
2024-01-12T19:48:20.950Z,99591.66
2024-01-12T19:50:54.160Z,99592.00
2024-01-12T19:53:26.177Z,99608.81
2024-01-12T19:55:58.903Z,99582.88
2024-01-12T19:58:31.080Z,99573.81
2024-01-12T20:01:06.934Z,99586.72
2024-01-12T20:03:41.703Z,99595.84
2024-01-12T20:06:14.522Z,99577.44
2024-01-12T20:08:46.732Z,99575.91
2024-01-12T20:11:19.482Z,99566.66
2024-01-12T20:13:51.858Z,99568.44
2024-01-12T20:16:25.364Z,99572.78
2024-01-12T20:18:58.886Z,99582.47
2024-01-12T20:21:31.831Z,99560.88
2024-01-12T20:24:05.557Z,99556.06
2024-01-12T20:26:38.625Z,99564.97
2024-01-12T20:29:10.620Z,99541.19
2024-01-12T20:31:43.334Z,99561.56
2024-01-12T20:34:15.379Z,99552.25
2024-01-12T20:36:48.388Z,99560.69
2024-01-12T20:39:20.386Z,99556.53
2024-01-12T20:41:53.126Z,99566.25
2024-01-12T20:44:25.240Z,99563.03
2024-01-12T20:46:57.855Z,99561.44
2024-01-12T20:49:29.794Z,99549.56
2024-01-12T20:52:02.637Z,99555.47
2024-01-12T20:54:34.588Z,99554.47
2024-01-12T20:57:07.725Z,99569.22
2024-01-12T20:59:40.182Z,99551.59
2024-01-12T21:02:12.867Z,99544.66
2024-01-12T21:04:44.876Z,99557.44
2024-01-12T21:07:20.060Z,99562.88
2024-01-12T21:09:52.078Z,99564.88
2024-01-12T21:12:24.716Z,99563.00
2024-01-12T21:14:56.929Z,99566.19
2024-01-12T21:17:29.658Z,99555.78
2024-01-12T21:20:01.856Z,99567.66
2024-01-12T21:22:39.968Z,99569.31
2024-01-12T21:25:15.546Z,99575.63
2024-01-12T21:27:48.241Z,99572.88
2024-01-12T21:30:20.284Z,99568.75
2024-01-12T21:32:53.066Z,99573.97
2024-01-12T21:35:25.144Z,99567.06
2024-01-12T21:37:57.823Z,99574.38
2024-01-12T21:40:29.742Z,99568.84
2024-01-12T21:43:02.014Z,99579.75
2024-01-12T21:45:34.723Z,99572.28
2024-01-12T21:48:08.249Z,99575.91
2024-01-12T21:50:41.317Z,99580.69
2024-01-12T21:53:14.538Z,99585.41
2024-01-12T21:55:46.523Z,99569.56
2024-01-12T21:58:19.141Z,99567.59
2024-01-12T22:00:51.072Z,99555.50
2024-01-12T22:03:24.000Z,99561.09
2024-01-12T22:05:56.470Z,99553.97
2024-01-12T22:08:29.574Z,99552.41
2024-01-12T22:11:01.573Z,99546.47
2024-01-12T22:13:34.166Z,99544.84
2024-01-12T22:16:06.333Z,99543.25
2024-01-12T22:18:39.087Z,99536.50
2024-01-12T22:21:11.314Z,99544.84
2024-01-12T22:23:44.050Z,99530.78
2024-01-12T22:26:16.069Z,99539.47
2024-01-12T22:28:48.732Z,99547.84
2024-01-12T22:31:20.684Z,99536.56
2024-01-12T22:33:53.577Z,99530.78
2024-01-12T22:36:25.605Z,99536.53
2024-01-12T22:38:58.316Z,99531.97
2024-01-12T22:41:30.318Z,99530.00
2024-01-12T22:44:03.592Z,99540.69
2024-01-12T22:46:35.586Z,99540.69
2024-01-12T22:49:11.292Z,99533.56
2024-01-12T22:51:44.169Z,99531.97
2024-01-12T22:54:16.874Z,99533.19
2024-01-12T22:56:48.945Z,99518.22
2024-01-12T22:59:21.654Z,99527.13
2024-01-12T23:01:53.579Z,99524.75
2024-01-12T23:04:26.202Z,99518.06
2024-01-12T23:06:58.204Z,99518.66
2024-01-12T23:09:30.841Z,99513.53
2024-01-12T23:12:04.169Z,99510.97
2024-01-12T23:14:36.939Z,99514.34
2024-01-12T23:17:09.130Z,99511.38
2024-01-12T23:19:41.820Z,99509.19
2024-01-12T23:22:14.214Z,99524.25
2024-01-12T23:24:47.261Z,99517.91
2024-01-12T23:27:20.717Z,99508.19
2024-01-12T23:29:53.509Z,99511.16
2024-01-12T23:32:25.704Z,99499.88
2024-01-12T23:34:58.601Z,99503.03
2024-01-12T23:37:30.660Z,99493.25
2024-01-12T23:40:03.840Z,99498.63
2024-01-12T23:42:37.087Z,99493.91
2024-01-12T23:45:10.137Z,99503.56
2024-01-12T23:47:43.559Z,99499.34
2024-01-12T23:50:16.397Z,99503.66
2024-01-12T23:52:48.429Z,99498.72
2024-01-12T23:55:21.215Z,99486.09
2024-01-12T23:57:53.139Z,99491.69
